createdAt,value
2023-02-03T00:05:26.544Z,55.44
2023-02-03T00:25:26.501Z,55.44
2023-02-03T00:45:26.629Z,55.45
2023-02-03T01:05:26.473Z,55.47
2023-02-03T01:25:26.582Z,55.47
2023-02-03T01:45:26.582Z,55.47
2023-02-03T02:25:26.561Z,55.49
2023-02-03T03:05:26.019Z,55.5
2023-02-03T03:45:26.498Z,55.51
2023-02-03T04:05:26.493Z,55.52
2023-02-03T04:25:26.548Z,55.53
2023-02-03T04:45:26.474Z,55.53
2023-02-03T05:25:26.430Z,55.54
2023-02-03T06:05:26.406Z,55.56
2023-02-03T06:25:26.382Z,55.56
2023-02-03T07:45:26.335Z,55.6
2023-02-03T08:05:26.317Z,55.62
2023-02-03T08:25:25.788Z,55.63
2023-02-03T08:45:26.295Z,55.64
2023-02-03T09:05:25.544Z,55.66
2023-02-03T09:45:26.283Z,55.67
2023-02-03T10:05:26.227Z,55.7
2023-02-03T10:25:26.220Z,55.71
2023-02-03T10:45:26.196Z,55.72
2023-02-03T11:05:26.055Z,55.73
2023-02-03T11:25:26.170Z,55.73
2023-02-03T11:45:26.190Z,55.75
2023-02-03T12:05:26.208Z,55.75
2023-02-03T12:25:26.182Z,55.75
2023-02-03T12:45:26.112Z,55.76
2023-02-03T13:05:26.122Z,55.79
2023-02-03T13:25:26.102Z,55.8
2023-02-03T13:45:26.073Z,55.8
2023-02-03T14:05:25.758Z,55.8
2023-02-03T14:25:26.360Z,55.81
2023-02-03T14:45:25.861Z,55.82
2023-02-03T15:05:26.368Z,55.82
2023-02-03T15:25:26.458Z,55.82
2023-02-03T15:45:25.207Z,55.81
2023-02-03T16:05:25.251Z,55.82
2023-02-03T16:25:25.966Z,55.84
2023-02-03T16:45:25.969Z,55.83
2023-02-03T17:05:25.805Z,55.84
2023-02-03T18:05:25.141Z,55.85
2023-02-03T18:25:25.333Z,55.86
2023-02-03T18:45:25.117Z,55.86
2023-02-03T19:05:25.843Z,55.86
2023-02-03T19:25:25.898Z,55.86
2023-02-03T19:45:25.857Z,55.86
2023-02-03T20:05:25.830Z,55.87
2023-02-03T20:25:25.872Z,55.87
2023-02-03T20:45:25.798Z,55.87
2023-02-03T21:05:25.811Z,55.87
2023-02-03T21:25:25.649Z,55.87
2023-02-03T21:45:25.050Z,55.88
2023-02-03T22:05:25.765Z,55.88
2023-02-03T22:25:25.777Z,55.88
2023-02-03T22:45:25.230Z,55.88
2023-02-03T23:25:25.736Z,55.89
2023-02-03T23:45:25.193Z,55.89
